Aviation Digital Data Service (ADDS)

Output produced by METARs form (2357 UTC 23 May 2022)
found at http://www.aviationweather.gov/metar/data/
 
DXXX 232300Z 04008KT 4000 TSRA BKN013 FEW020CB 24/22 Q1015 TEMPO 2500 TSRA
TAF DXXX 232300Z 2400/2506 VRB05KT 4000 TSRA BKN012 FEW020CB 
     TEMPO 2400/2406 2500 TSRA 
     BECMG 2406/2408 8000 NSW SCT012 
     BECMG 2408/2410 20010KT
       
DXNG 232100Z 05001KT 9999 FEW007 23/20 Q1016
TAF DXNG 232300Z 2400/2424 VRB05KT 9999 FEW007